Forside
METAR-TAF:

METAR-TAF

Lufthavne :

West Bend Municipal Airport

West Bend, Wisconsin, USA

Breddekreds: 43-25-20N, længdekreds: 088-07-41W, højde: 270 m

Aktuelle vejr

Denne rapport blev lavet for 30 minutter siden, kl. 14:55 UTC
Vind 5 kt fra vestsydvest
Temperatur 10°C
Fugtighed 100%
Tryk 1008 hPa
Sigt: 11.3 km
Overskyet i en højde af 300 ft

METAR: KETB 081455Z AUTO 25005KT 7SM OVC003 10/10 A2976 RMK AO2

Tid: 10:25 (15:25 UTC)


TAF: fraværende

Vejrobservationer og prognoser fra mere end 4000 lufthavne (METAR og TAF).

De gule og røde prikker repræsenterer de meteorologiske stationer.

Flyt musen over at se navnet på stationen.

Så klik over at se vejr observationer og prognoser.

At skifte det kort: Klik på de grønne knapper med et sort kors for at zoome ind; på den grønne knap med en bindestreg for at zoome ud; eller på de grønne pile for tilstødende kort.


METAR-TAF: